Time;durP1;ratioP1;P1;durP2;ratioP2;P2;SDS_P1;SDS_P2;PMS_P1;PMS_P2;Temp;Humidity;BMP_temperature;BMP_pressure;BME280_temperature;BME280_humidity;BME280_pressure;Samples;Min_cycle;Max_cycle;Signal;HPM_P1;HPM_P2
2023/01/08 00:02:33;;;;;;;63.97;32.80;;;6.40;99.90;;;;;;5055005;28;20224;-82
2023/01/08 00:05:22;;;;;;;60.90;33.27;;;6.40;99.90;;;;;;5053521;28;20228;-85
2023/01/08 00:08:11;;;;;;;59.13;32.73;;;6.30;99.90;;;;;;5052269;28;20270;-84
2023/01/08 00:11:01;;;;;;;60.40;33.53;;;6.30;99.90;;;;;;5077717;28;20308;-84
2023/01/08 00:13:50;;;;;;;57.33;31.97;;;6.40;99.90;;;;;;5074012;28;20603;-84
2023/01/08 00:16:39;;;;;;;60.10;31.87;;;6.40;99.90;;;;;;5056332;28;20227;-82
2023/01/08 00:19:28;;;;;;;59.53;31.87;;;6.40;99.90;;;;;;5042164;28;20237;-85
2023/01/08 00:22:17;;;;;;;54.17;30.60;;;6.20;99.90;;;;;;5046023;28;20224;-84
2023/01/08 00:25:07;;;;;;;60.90;32.70;;;6.30;99.90;;;;;;5042084;28;20961;-84
2023/01/08 00:27:57;;;;;;;53.13;31.17;;;6.20;99.90;;;;;;5033503;28;20244;-84
2023/01/08 00:30:45;;;;;;;51.13;29.53;;;6.10;99.90;;;;;;5064730;28;20236;-84
2023/01/08 00:33:35;;;;;;;51.90;28.87;;;6.00;99.90;;;;;;5048499;28;20224;-84
2023/01/08 00:36:24;;;;;;;51.97;29.60;;;6.10;99.90;;;;;;5064311;28;20218;-84
2023/01/08 00:39:13;;;;;;;50.83;29.47;;;6.10;99.90;;;;;;5080031;28;20244;-84
2023/01/08 00:42:01;;;;;;;50.83;29.50;;;6.20;99.90;;;;;;5042460;28;20233;-85
2023/01/08 00:44:52;;;;;;;50.43;28.93;;;6.20;99.90;;;;;;5052564;28;20232;-83
2023/01/08 00:47:40;;;;;;;49.00;29.80;;;6.10;99.90;;;;;;5067518;28;21012;-85
2023/01/08 00:50:29;;;;;;;45.50;27.60;;;6.00;99.90;;;;;;5067393;28;20603;-84
2023/01/08 00:53:18;;;;;;;51.13;30.30;;;6.10;99.90;;;;;;5083995;28;20223;-83
2023/01/08 00:56:09;;;;;;;53.10;30.67;;;6.10;99.90;;;;;;5089075;28;20253;-83
2023/01/08 00:58:58;;;;;;;48.57;29.43;;;6.10;99.90;;;;;;5079128;28;20227;-85
2023/01/08 01:01:48;;;;;;;46.50;28.53;;;6.20;99.90;;;;;;5089502;28;20250;-85
2023/01/08 01:04:37;;;;;;;47.83;28.83;;;6.00;99.90;;;;;;5091769;28;20749;-84
2023/01/08 01:07:26;;;;;;;42.87;27.87;;;6.00;99.90;;;;;;5094912;28;20233;-85
2023/01/08 01:10:16;;;;;;;44.07;28.00;;;5.90;99.90;;;;;;5085680;28;20223;-86
2023/01/08 01:13:04;;;;;;;44.70;28.33;;;6.00;99.90;;;;;;5090185;28;20825;-85
2023/01/08 01:16:01;;;;;;;49.83;28.50;;;6.00;99.90;;;;;;5088707;28;20235;-86
2023/01/08 01:18:51;;;;;;;49.47;28.43;;;5.90;99.90;;;;;;5081657;28;20251;-85
2023/01/08 01:21:40;;;;;;;46.77;28.57;;;6.00;99.90;;;;;;5071406;28;20221;-84
2023/01/08 01:24:29;;;;;;;48.30;29.10;;;5.90;99.90;;;;;;5105804;27;20225;-84
2023/01/08 01:27:17;;;;;;;45.80;27.43;;;5.90;99.90;;;;;;5070108;28;20232;-86
2023/01/08 01:30:08;;;;;;;43.77;27.07;;;5.90;99.90;;;;;;5098847;27;20230;-85
2023/01/08 01:32:57;;;;;;;44.23;27.13;;;5.90;99.90;;;;;;5085647;28;20230;-85
2023/01/08 01:35:47;;;;;;;41.07;26.60;;;5.80;99.90;;;;;;5098533;28;20211;-85
2023/01/08 01:38:35;;;;;;;43.43;27.27;;;5.80;99.90;;;;;;5087200;28;20220;-85
2023/01/08 01:41:26;;;;;;;40.97;26.83;;;5.80;99.90;;;;;;5088198;28;20230;-85
2023/01/08 01:44:35;;;;;;;43.33;27.40;;;5.80;99.90;;;;;;5086503;28;20223;-86
2023/01/08 01:47:26;;;;;;;40.67;27.07;;;5.80;99.90;;;;;;5084044;28;20226;-85
2023/01/08 01:50:19;;;;;;;43.43;26.47;;;5.80;99.90;;;;;;5097593;28;20464;-85
2023/01/08 01:53:12;;;;;;;43.87;27.40;;;5.70;99.90;;;;;;5093157;28;20275;-85
2023/01/08 01:56:02;;;;;;;44.73;27.70;;;5.60;99.90;;;;;;5086610;28;20224;-85
2023/01/08 01:58:51;;;;;;;42.60;26.07;;;5.60;99.90;;;;;;5085497;28;20228;-86
2023/01/08 02:01:42;;;;;;;40.70;26.67;;;5.70;99.90;;;;;;5071592;28;20272;-85
2023/01/08 02:04:31;;;;;;;46.57;27.00;;;5.80;99.90;;;;;;5076417;28;20748;-86
2023/01/08 02:07:28;;;;;;;42.97;26.53;;;5.70;99.90;;;;;;5084032;28;20227;-85
2023/01/08 02:10:23;;;;;;;41.50;26.53;;;5.80;99.90;;;;;;5085444;28;20212;-85
2023/01/08 02:13:15;;;;;;;46.37;26.90;;;5.80;99.90;;;;;;5087719;28;20302;-85
2023/01/08 02:16:12;;;;;;;40.27;26.53;;;5.80;99.90;;;;;;5082933;28;20602;-86
2023/01/08 02:19:07;;;;;;;43.90;26.33;;;5.80;99.90;;;;;;5076197;28;20215;-85
2023/01/08 02:22:05;;;;;;;42.60;26.37;;;5.80;99.90;;;;;;5080106;28;20275;-85
2023/01/08 02:25:00;;;;;;;38.43;25.77;;;5.90;99.90;;;;;;5074058;28;20233;-84
2023/01/08 02:27:52;;;;;;;38.80;26.13;;;5.80;99.90;;;;;;5075689;28;20227;-85
2023/01/08 02:30:42;;;;;;;37.70;24.53;;;5.90;99.90;;;;;;5084305;28;20586;-85
2023/01/08 02:33:32;;;;;;;37.30;25.67;;;5.90;99.90;;;;;;5083757;28;20219;-85
2023/01/08 02:36:30;;;;;;;35.97;24.40;;;5.80;99.90;;;;;;5064114;28;20223;-84
2023/01/08 02:39:37;;;;;;;36.40;23.53;;;5.90;99.90;;;;;;5108653;27;20220;-85
2023/01/08 02:42:38;;;;;;;33.13;21.70;;;5.80;99.90;;;;;;5080955;28;20299;-85
2023/01/08 02:45:36;;;;;;;30.77;20.57;;;5.80;99.90;;;;;;5085556;28;20227;-85
2023/01/08 02:48:34;;;;;;;27.07;19.77;;;5.80;99.90;;;;;;5084777;28;20227;-85
2023/01/08 02:51:29;;;;;;;33.43;20.30;;;5.80;99.90;;;;;;5082338;28;20231;-85
2023/01/08 02:54:23;;;;;;;28.90;18.70;;;5.80;99.90;;;;;;5083529;28;20866;-85
2023/01/08 02:57:15;;;;;;;26.53;18.50;;;5.80;99.90;;;;;;5068956;28;20590;-85
2023/01/08 03:00:05;;;;;;;32.20;18.00;;;5.80;99.90;;;;;;5078625;28;20238;-85
2023/01/08 03:03:03;;;;;;;24.73;17.73;;;5.70;99.90;;;;;;5085507;28;20730;-85
2023/01/08 03:05:57;;;;;;;28.93;17.57;;;5.70;99.90;;;;;;5076753;28;20231;-86
2023/01/08 03:08:48;;;;;;;26.23;17.37;;;5.60;99.90;;;;;;5085636;28;20227;-86
2023/01/08 03:11:46;;;;;;;26.60;16.80;;;5.50;99.90;;;;;;5079387;28;20231;-85
2023/01/08 03:14:41;;;;;;;26.87;16.47;;;5.50;99.90;;;;;;5085366;28;20467;-85
2023/01/08 03:17:32;;;;;;;26.20;15.90;;;5.50;99.90;;;;;;5078994;28;20224;-85
2023/01/08 03:20:24;;;;;;;29.97;16.87;;;5.50;99.90;;;;;;5084324;28;20230;-85
2023/01/08 03:23:16;;;;;;;24.07;16.00;;;5.30;99.90;;;;;;5079431;28;20232;-85
2023/01/08 03:26:06;;;;;;;27.33;15.73;;;5.20;99.90;;;;;;5085312;28;20804;-85
2023/01/08 03:28:57;;;;;;;25.83;16.60;;;5.30;99.90;;;;;;5083907;28;20577;-85
2023/01/08 03:31:48;;;;;;;28.83;16.37;;;5.20;99.90;;;;;;5084408;28;20219;-85
2023/01/08 03:34:40;;;;;;;23.60;15.87;;;5.10;99.90;;;;;;5083357;28;20226;-85
2023/01/08 03:37:35;;;;;;;26.20;15.80;;;5.20;99.90;;;;;;5083465;28;20219;-85
2023/01/08 03:40:29;;;;;;;23.87;15.07;;;5.20;99.90;;;;;;5075818;28;20215;-85
2023/01/08 03:43:18;;;;;;;22.60;15.40;;;5.20;99.90;;;;;;5076539;28;20235;-85
2023/01/08 03:46:14;;;;;;;21.73;15.60;;;5.10;99.90;;;;;;5077076;28;20246;-85
2023/01/08 03:49:05;;;;;;;22.00;14.83;;;5.20;99.90;;;;;;5077886;28;20639;-85
2023/01/08 03:51:53;;;;;;;21.53;15.33;;;5.10;99.90;;;;;;5082243;28;20215;-85
2023/01/08 03:54:43;;;;;;;21.03;14.60;;;5.20;99.90;;;;;;5082308;28;20215;-85
2023/01/08 03:57:32;;;;;;;22.63;14.90;;;5.10;99.90;;;;;;5082981;28;20220;-85
2023/01/08 04:00:22;;;;;;;23.73;14.93;;;5.10;99.90;;;;;;5103400;28;20207;-85
2023/01/08 04:03:11;;;;;;;21.97;14.63;;;5.20;99.90;;;;;;5086479;28;20330;-86
2023/01/08 04:05:59;;;;;;;25.20;15.33;;;5.30;99.90;;;;;;5082550;28;20212;-84
2023/01/08 04:08:49;;;;;;;20.43;14.93;;;5.20;99.90;;;;;;5085015;28;20212;-85
2023/01/08 04:11:39;;;;;;;23.13;15.63;;;5.20;99.90;;;;;;5079173;28;20308;-85
2023/01/08 04:14:27;;;;;;;23.93;14.83;;;5.20;99.90;;;;;;5080744;28;20223;-85
2023/01/08 04:17:16;;;;;;;18.40;13.80;;;5.20;99.90;;;;;;5071441;28;20245;-85
2023/01/08 04:20:06;;;;;;;21.47;14.50;;;5.10;99.90;;;;;;5085732;28;20231;-85
2023/01/08 04:22:55;;;;;;;22.27;14.50;;;5.10;99.90;;;;;;5093596;28;20235;-85
2023/01/08 04:25:43;;;;;;;20.60;13.87;;;5.10;99.90;;;;;;5088756;28;20703;-85
2023/01/08 04:28:34;;;;;;;20.53;13.20;;;5.10;99.90;;;;;;5093829;28;20241;-87
2023/01/08 04:31:23;;;;;;;21.20;12.93;;;5.00;99.90;;;;;;5093093;28;20226;-85
2023/01/08 04:34:12;;;;;;;20.70;13.53;;;5.00;99.90;;;;;;5086590;28;20219;-85
2023/01/08 04:37:01;;;;;;;18.40;12.90;;;5.00;99.90;;;;;;5069673;28;20763;-85
2023/01/08 04:39:50;;;;;;;19.27;13.40;;;5.00;99.90;;;;;;5072725;28;20215;-85
2023/01/08 04:42:39;;;;;;;19.93;13.53;;;5.00;99.90;;;;;;5110950;27;20227;-85
2023/01/08 04:45:29;;;;;;;23.33;13.83;;;4.90;99.90;;;;;;5101057;28;20224;-85
2023/01/08 04:48:19;;;;;;;19.33;12.90;;;5.00;99.90;;;;;;5108311;27;20310;-85
2023/01/08 04:51:07;;;;;;;20.03;13.70;;;5.10;99.90;;;;;;5086860;28;20219;-85
2023/01/08 04:53:57;;;;;;;22.37;13.93;;;5.10;99.90;;;;;;5081303;28;20935;-85
2023/01/08 04:56:46;;;;;;;20.47;13.63;;;5.20;99.90;;;;;;5082313;28;20234;-85
2023/01/08 04:59:34;;;;;;;21.37;14.50;;;5.30;99.90;;;;;;5077628;28;20763;-85
2023/01/08 05:02:25;;;;;;;21.97;14.63;;;5.20;99.90;;;;;;5081865;28;20211;-85
2023/01/08 05:05:14;;;;;;;22.83;14.50;;;5.20;99.90;;;;;;5078874;28;20577;-85
2023/01/08 05:08:03;;;;;;;22.23;14.00;;;5.20;99.90;;;;;;5074238;28;20823;-85
2023/01/08 05:10:51;;;;;;;24.17;14.10;;;5.20;99.90;;;;;;5084034;28;20232;-87
2023/01/08 05:13:40;;;;;;;21.53;13.30;;;5.20;99.90;;;;;;5087525;28;20224;-85
2023/01/08 05:16:29;;;;;;;21.53;13.70;;;5.00;99.90;;;;;;5086091;28;20594;-85
2023/01/08 05:19:19;;;;;;;18.63;12.30;;;5.00;99.90;;;;;;5085197;28;20215;-84
2023/01/08 05:22:08;;;;;;;18.47;12.27;;;5.00;99.90;;;;;;5087366;28;20249;-84
2023/01/08 05:24:56;;;;;;;20.50;12.90;;;5.00;99.90;;;;;;5073837;28;21078;-84
2023/01/08 05:27:46;;;;;;;19.80;12.43;;;4.90;99.90;;;;;;5072849;28;20235;-85
2023/01/08 05:30:36;;;;;;;18.50;12.07;;;4.90;99.90;;;;;;5080233;28;20232;-85
2023/01/08 05:33:26;;;;;;;16.97;11.80;;;4.90;99.90;;;;;;5081421;28;20773;-85
2023/01/08 05:36:16;;;;;;;19.00;12.17;;;5.00;99.90;;;;;;5084895;28;20224;-85
2023/01/08 05:39:05;;;;;;;18.60;12.30;;;5.00;99.90;;;;;;5106336;27;20223;-85
2023/01/08 05:41:54;;;;;;;21.93;12.17;;;4.90;99.90;;;;;;5072818;28;20229;-85
2023/01/08 05:44:42;;;;;;;17.10;11.67;;;4.90;99.90;;;;;;5086082;28;20297;-85
2023/01/08 05:47:32;;;;;;;18.53;11.20;;;4.90;99.90;;;;;;5086256;28;20232;-85
2023/01/08 05:50:20;;;;;;;19.87;11.80;;;4.80;99.90;;;;;;5085460;28;20294;-85
2023/01/08 05:53:12;;;;;;;16.13;11.03;;;4.80;99.90;;;;;;5111682;27;20215;-85
2023/01/08 05:56:01;;;;;;;18.37;11.73;;;4.80;99.90;;;;;;5086948;28;20886;-84
2023/01/08 05:58:53;;;;;;;18.40;10.93;;;4.80;99.90;;;;;;5086956;28;20578;-84
2023/01/08 06:01:42;;;;;;;19.50;11.27;;;4.80;99.90;;;;;;5078641;28;20315;-85
2023/01/08 06:04:30;;;;;;;17.37;11.10;;;4.80;99.90;;;;;;5088622;28;20216;-85
2023/01/08 06:07:19;;;;;;;17.27;11.00;;;4.70;99.90;;;;;;5108699;28;20227;-86
2023/01/08 06:10:10;;;;;;;17.10;11.00;;;4.70;99.90;;;;;;5109550;28;20231;-85
2023/01/08 06:12:59;;;;;;;20.53;12.30;;;4.80;99.90;;;;;;5099777;28;20233;-85
2023/01/08 06:15:47;;;;;;;17.80;12.00;;;4.80;99.90;;;;;;5082450;28;20610;-85
2023/01/08 06:18:37;;;;;;;18.83;11.83;;;4.80;99.90;;;;;;5086531;28;20302;-85
2023/01/08 06:21:26;;;;;;;21.03;11.83;;;4.70;99.90;;;;;;5071082;28;20227;-85
2023/01/08 06:24:14;;;;;;;21.70;13.10;;;4.70;99.90;;;;;;5070691;28;20729;-86
2023/01/08 06:27:04;;;;;;;17.97;11.87;;;4.80;99.90;;;;;;5083896;28;20249;-85
2023/01/08 06:29:53;;;;;;;17.60;12.00;;;4.70;99.90;;;;;;5064921;28;20317;-85
2023/01/08 06:32:42;;;;;;;20.73;12.17;;;4.70;99.90;;;;;;5081069;28;20224;-85
2023/01/08 06:35:30;;;;;;;19.77;11.73;;;4.80;99.90;;;;;;5094526;27;20230;-85
2023/01/08 06:38:19;;;;;;;17.00;11.50;;;4.70;99.90;;;;;;5085621;28;20309;-85
2023/01/08 06:41:10;;;;;;;17.70;11.87;;;4.80;99.90;;;;;;5083068;28;20234;-85
2023/01/08 06:44:00;;;;;;;17.50;11.97;;;4.70;99.90;;;;;;5085101;28;20238;-85
2023/01/08 06:46:49;;;;;;;18.17;11.10;;;4.80;99.90;;;;;;5088121;28;20319;-84
2023/01/08 06:49:37;;;;;;;19.20;10.60;;;4.80;99.90;;;;;;5084021;28;20216;-85
2023/01/08 06:52:26;;;;;;;17.67;10.70;;;4.80;99.90;;;;;;5081221;28;20227;-85
2023/01/08 06:55:15;;;;;;;18.67;11.03;;;4.80;99.90;;;;;;5085638;28;20233;-85
2023/01/08 06:58:04;;;;;;;18.67;11.53;;;4.90;99.90;;;;;;5086421;28;20237;-85
2023/01/08 07:00:54;;;;;;;17.17;10.77;;;4.80;99.90;;;;;;5086067;28;20223;-86
2023/01/08 07:03:44;;;;;;;15.80;10.33;;;4.80;99.90;;;;;;5081173;28;20228;-85
2023/01/08 07:06:33;;;;;;;19.83;10.60;;;4.80;99.90;;;;;;5079906;28;20303;-86
2023/01/08 07:09:21;;;;;;;17.77;10.57;;;4.80;99.90;;;;;;5078281;28;20254;-84
2023/01/08 07:12:12;;;;;;;18.83;11.50;;;4.80;99.90;;;;;;5079599;28;20276;-85
2023/01/08 07:15:02;;;;;;;15.63;11.00;;;4.90;99.90;;;;;;5082395;28;20732;-85
2023/01/08 07:17:52;;;;;;;16.57;11.03;;;4.80;99.90;;;;;;5101320;28;20211;-85
2023/01/08 07:20:41;;;;;;;18.57;10.90;;;4.90;99.90;;;;;;5098980;28;20228;-85
2023/01/08 07:23:30;;;;;;;18.90;10.67;;;5.00;99.90;;;;;;5086364;28;20302;-85
2023/01/08 07:26:19;;;;;;;17.77;11.20;;;5.00;99.90;;;;;;5104209;27;20223;-85
2023/01/08 07:29:08;;;;;;;18.17;11.97;;;4.90;99.90;;;;;;5077831;28;20223;-85
2023/01/08 07:31:56;;;;;;;19.50;12.07;;;4.90;99.90;;;;;;5071063;28;20227;-85
2023/01/08 07:34:46;;;;;;;17.97;11.33;;;5.00;99.90;;;;;;5081913;28;20705;-84
2023/01/08 07:37:39;;;;;;;17.97;11.87;;;4.90;99.90;;;;;;5073202;28;20228;-85
2023/01/08 07:40:28;;;;;;;18.07;12.47;;;4.80;99.90;;;;;;5068754;28;20212;-86
2023/01/08 07:43:17;;;;;;;18.13;11.93;;;4.80;99.90;;;;;;5070893;28;20231;-85
2023/01/08 07:46:06;;;;;;;20.93;12.33;;;4.80;99.90;;;;;;5078486;28;20725;-85
2023/01/08 07:48:56;;;;;;;22.07;12.57;;;4.70;99.90;;;;;;5066580;28;20238;-85
2023/01/08 07:51:49;;;;;;;17.67;11.93;;;4.70;99.90;;;;;;5114048;28;20314;-85
2023/01/08 07:54:37;;;;;;;20.73;12.47;;;4.80;99.90;;;;;;5077809;28;20239;-85
2023/01/08 07:57:28;;;;;;;18.53;12.03;;;4.80;99.90;;;;;;5087175;27;20253;-84
2023/01/08 08:00:18;;;;;;;19.57;11.77;;;4.70;99.90;;;;;;5083227;28;20587;-85
2023/01/08 08:03:10;;;;;;;21.00;13.10;;;4.80;99.90;;;;;;5080182;28;20246;-84
2023/01/08 08:06:00;;;;;;;17.87;11.53;;;4.90;99.90;;;;;;5085640;28;20223;-85
2023/01/08 08:08:50;;;;;;;21.07;12.00;;;4.80;99.90;;;;;;5082680;28;20250;-84
2023/01/08 08:11:39;;;;;;;19.10;11.90;;;4.80;99.90;;;;;;5087963;27;20258;-84
2023/01/08 08:14:28;;;;;;;20.40;12.63;;;4.70;99.90;;;;;;5099080;28;20208;-84
2023/01/08 08:17:17;;;;;;;23.23;12.40;;;4.70;99.90;;;;;;5111723;28;20294;-85
2023/01/08 08:20:06;;;;;;;22.30;11.93;;;4.70;99.90;;;;;;5104817;28;20231;-85
2023/01/08 08:23:01;;;;;;;20.93;11.73;;;4.60;99.90;;;;;;5092019;28;20230;-85
2023/01/08 08:25:51;;;;;;;19.77;11.67;;;4.70;99.90;;;;;;5116475;27;20219;-85
2023/01/08 08:28:39;;;;;;;19.77;11.70;;;4.70;99.90;;;;;;5082915;28;20230;-85
2023/01/08 08:31:28;;;;;;;18.80;11.87;;;4.80;99.90;;;;;;5085852;28;20218;-85
2023/01/08 08:34:19;;;;;;;21.63;12.53;;;4.80;99.90;;;;;;5088376;28;20219;-85
2023/01/08 08:37:08;;;;;;;20.00;12.00;;;4.80;99.90;;;;;;5089995;28;20235;-84
2023/01/08 08:39:57;;;;;;;22.17;13.07;;;4.80;99.90;;;;;;5088852;27;20223;-85
2023/01/08 08:42:47;;;;;;;20.80;12.70;;;4.80;99.90;;;;;;5088080;27;20235;-84
2023/01/08 08:45:36;;;;;;;23.10;12.40;;;4.80;99.90;;;;;;5034616;28;20810;-85
2023/01/08 08:48:25;;;;;;;27.03;13.00;;;4.90;99.90;;;;;;5052530;28;20302;-85
2023/01/08 08:51:15;;;;;;;19.60;12.20;;;4.90;99.90;;;;;;5053607;28;20235;-85
2023/01/08 08:54:04;;;;;;;23.50;12.73;;;4.80;99.90;;;;;;5052212;28;20764;-85
2023/01/08 08:56:53;;;;;;;24.80;13.17;;;4.80;99.90;;;;;;5059589;28;20225;-86
2023/01/08 08:59:43;;;;;;;20.17;12.33;;;4.80;99.90;;;;;;5042318;28;20711;-85
2023/01/08 09:02:32;;;;;;;17.97;12.17;;;4.90;99.90;;;;;;5065783;28;21081;-86
2023/01/08 09:05:21;;;;;;;24.87;13.50;;;5.00;99.90;;;;;;5053117;28;20255;-87
2023/01/08 09:08:10;;;;;;;23.03;12.93;;;5.10;99.90;;;;;;5064132;28;20235;-86
2023/01/08 09:10:59;;;;;;;21.93;13.40;;;5.20;99.90;;;;;;5077697;28;20250;-87
2023/01/08 09:13:47;;;;;;;24.27;13.43;;;5.20;99.90;;;;;;5053411;28;20235;-87
2023/01/08 09:16:38;;;;;;;22.90;13.23;;;5.20;99.90;;;;;;5053398;28;20240;-86
2023/01/08 09:19:27;;;;;;;22.73;12.90;;;5.10;99.90;;;;;;5038449;28;20329;-85
2023/01/08 09:22:15;;;;;;;22.80;12.80;;;5.20;99.90;;;;;;5077873;28;20219;-85
2023/01/08 09:25:05;;;;;;;24.63;13.33;;;5.20;99.90;;;;;;5059335;28;20354;-86
2023/01/08 09:27:59;;;;;;;23.40;14.03;;;5.10;99.90;;;;;;5061566;28;20220;-87
2023/01/08 09:30:48;;;;;;;23.03;13.53;;;5.10;99.90;;;;;;5072220;28;20236;-86
2023/01/08 09:33:38;;;;;;;22.57;13.50;;;5.20;99.90;;;;;;5059472;28;20242;-87
2023/01/08 09:36:26;;;;;;;21.07;13.57;;;5.20;99.90;;;;;;5048881;28;20220;-87
2023/01/08 09:39:15;;;;;;;19.77;13.30;;;5.30;99.90;;;;;;5076598;28;20220;-87
2023/01/08 09:42:06;;;;;;;22.93;14.30;;;5.20;99.90;;;;;;5052971;28;20837;-85
2023/01/08 09:44:59;;;;;;;19.07;12.73;;;5.20;99.90;;;;;;5076601;28;20289;-86
2023/01/08 09:47:48;;;;;;;22.43;14.23;;;5.40;99.90;;;;;;5084133;28;20231;-86
2023/01/08 09:50:39;;;;;;;22.30;13.77;;;5.60;99.90;;;;;;5087530;28;20221;-87
2023/01/08 09:53:28;;;;;;;23.87;13.53;;;5.50;99.90;;;;;;5086441;28;20250;-86
2023/01/08 09:56:19;;;;;;;21.03;12.73;;;5.50;99.90;;;;;;5085539;28;20223;-85
2023/01/08 09:59:11;;;;;;;24.57;13.70;;;5.50;99.90;;;;;;5083771;28;20245;-85
2023/01/08 10:02:00;;;;;;;18.63;13.10;;;5.50;99.90;;;;;;5077937;28;20211;-85
2023/01/08 10:04:53;;;;;;;21.70;12.90;;;5.50;99.90;;;;;;5086890;28;20599;-86
2023/01/08 10:07:44;;;;;;;24.00;13.37;;;5.50;99.90;;;;;;5080271;28;20246;-86
2023/01/08 10:10:34;;;;;;;19.43;13.13;;;5.60;99.90;;;;;;5088117;28;20246;-86
2023/01/08 10:13:26;;;;;;;20.10;13.30;;;5.60;99.90;;;;;;5081320;28;20217;-86
2023/01/08 10:16:22;;;;;;;19.40;12.80;;;5.60;99.90;;;;;;5113827;27;20219;-86
2023/01/08 10:19:11;;;;;;;18.97;12.73;;;5.60;99.90;;;;;;5085397;28;20207;-86
2023/01/08 10:22:00;;;;;;;22.77;13.30;;;5.60;99.90;;;;;;5106239;28;20212;-83
2023/01/08 10:24:52;;;;;;;21.40;12.97;;;5.70;99.90;;;;;;5097552;28;20243;-86
2023/01/08 10:27:49;;;;;;;20.50;13.07;;;5.70;99.90;;;;;;5110556;28;20682;-86
2023/01/08 10:30:39;;;;;;;20.70;13.20;;;5.80;99.90;;;;;;5074249;28;20702;-86
2023/01/08 10:33:31;;;;;;;26.37;13.37;;;5.70;99.90;;;;;;5073754;28;20220;-86
2023/01/08 10:36:26;;;;;;;21.03;13.40;;;5.80;99.90;;;;;;5083887;28;20223;-85
2023/01/08 10:39:22;;;;;;;19.63;13.60;;;5.90;99.90;;;;;;5085654;28;20733;-85
2023/01/08 10:42:15;;;;;;;22.23;13.67;;;5.70;99.90;;;;;;5087713;28;20216;-84
2023/01/08 10:45:06;;;;;;;24.73;14.73;;;5.70;99.90;;;;;;5076439;28;20722;-85
2023/01/08 10:47:58;;;;;;;24.53;14.73;;;5.70;99.90;;;;;;5086139;28;20227;-85
2023/01/08 10:50:47;;;;;;;24.63;14.73;;;5.60;99.90;;;;;;5092852;28;20228;-86
2023/01/08 10:53:36;;;;;;;22.50;14.33;;;5.50;99.90;;;;;;5117862;27;20237;-85
2023/01/08 10:56:28;;;;;;;22.47;14.40;;;5.60;99.90;;;;;;5072634;28;20238;-85
2023/01/08 10:59:20;;;;;;;27.93;15.47;;;5.50;99.90;;;;;;5083309;28;20235;-86
2023/01/08 11:02:19;;;;;;;24.13;16.47;;;5.50;99.90;;;;;;5089832;28;20990;-85
2023/01/08 11:05:10;;;;;;;25.50;16.70;;;5.50;99.90;;;;;;5088271;28;20719;-85
2023/01/08 11:08:01;;;;;;;25.80;17.03;;;5.60;99.90;;;;;;5086825;28;20224;-86
2023/01/08 11:10:55;;;;;;;27.27;16.93;;;5.50;99.90;;;;;;5094536;28;20223;-86
2023/01/08 11:13:54;;;;;;;26.83;17.57;;;5.60;99.90;;;;;;5079697;28;20230;-85
2023/01/08 11:16:44;;;;;;;32.30;18.77;;;5.60;99.90;;;;;;5087075;28;20230;-86
2023/01/08 11:19:34;;;;;;;25.73;17.00;;;5.60;99.90;;;;;;5071483;28;20875;-86
2023/01/08 11:22:24;;;;;;;26.83;18.07;;;5.50;99.90;;;;;;5080223;28;20607;-85
2023/01/08 11:25:15;;;;;;;28.07;18.20;;;5.50;99.90;;;;;;5087473;28;20227;-85
2023/01/08 11:28:05;;;;;;;27.67;17.20;;;5.50;99.90;;;;;;5083172;28;20228;-86
2023/01/08 11:31:01;;;;;;;29.77;18.40;;;5.40;99.90;;;;;;5079437;28;20231;-84
2023/01/08 11:33:58;;;;;;;26.90;17.63;;;5.50;99.90;;;;;;5115798;27;20253;-85
2023/01/08 11:36:51;;;;;;;28.83;17.10;;;5.40;99.90;;;;;;5099109;28;20221;-81
2023/01/08 11:39:40;;;;;;;28.37;17.80;;;5.30;99.90;;;;;;5075154;28;20273;-83
2023/01/08 11:42:53;;;;;;;26.47;17.43;;;5.50;99.90;;;;;;5081767;28;20227;-81
2023/01/08 11:45:53;;;;;;;27.03;17.13;;;5.50;99.90;;;;;;5077042;28;20231;-81
2023/01/08 11:49:13;;;;;;;27.70;17.83;;;5.50;99.90;;;;;;5075625;28;20242;-79
2023/01/08 11:52:19;;;;;;;28.03;17.63;;;5.50;99.90;;;;;;5092389;28;20216;-79
2023/01/08 11:55:32;;;;;;;24.00;16.47;;;5.40;99.90;;;;;;5085720;28;20590;-81
2023/01/08 11:58:32;;;;;;;31.60;19.10;;;5.50;99.90;;;;;;5103029;28;20215;-79
2023/01/08 12:01:37;;;;;;;27.67;19.03;;;5.50;99.90;;;;;;5077822;27;20566;-78
2023/01/08 12:04:59;;;;;;;29.40;19.77;;;5.40;99.90;;;;;;5082272;28;20234;-76
2023/01/08 12:07:56;;;;;;;31.03;19.93;;;5.20;99.90;;;;;;5089927;28;20231;-79
2023/01/08 12:10:57;;;;;;;32.33;20.30;;;5.40;99.90;;;;;;5073372;28;20226;-79
2023/01/08 12:14:04;;;;;;;31.93;19.93;;;5.40;99.90;;;;;;5078572;28;20223;-79
2023/01/08 12:17:09;;;;;;;29.57;19.60;;;5.30;99.90;;;;;;5076531;28;20400;-85
2023/01/08 12:20:15;;;;;;;29.63;19.77;;;5.40;99.90;;;;;;5085195;28;20666;-77
2023/01/08 12:23:21;;;;;;;32.83;21.13;;;5.50;99.90;;;;;;5085146;28;20210;-79
2023/01/08 12:26:19;;;;;;;30.80;20.17;;;5.50;99.90;;;;;;5083803;28;20320;-81
2023/01/08 12:29:36;;;;;;;28.77;19.40;;;5.50;99.90;;;;;;5085931;28;20618;-80
2023/01/08 12:32:30;;;;;;;37.43;20.57;;;5.50;99.90;;;;;;5099186;27;21276;-80
2023/01/08 12:35:25;;;;;;;32.53;20.23;;;5.40;99.90;;;;;;5070961;28;20254;-82
2023/01/08 12:38:19;;;;;;;30.73;20.13;;;5.40;99.90;;;;;;5075976;28;20220;-79
2023/01/08 12:41:11;;;;;;;29.27;19.37;;;5.30;99.90;;;;;;5087740;28;20231;-78
2023/01/08 12:44:02;;;;;;;28.37;18.70;;;5.40;99.90;;;;;;5112422;27;20223;-81
2023/01/08 12:46:55;;;;;;;32.17;20.10;;;5.30;99.90;;;;;;5082151;28;20258;-80
2023/01/08 12:49:51;;;;;;;26.77;19.27;;;5.40;99.90;;;;;;5081503;28;20342;-79
2023/01/08 12:52:50;;;;;;;28.20;19.87;;;5.30;99.90;;;;;;5107633;27;20844;-79
2023/01/08 12:55:46;;;;;;;34.60;20.73;;;5.30;99.90;;;;;;5084108;28;20487;-80
2023/01/08 12:58:59;;;;;;;29.23;19.90;;;5.30;99.90;;;;;;5077689;28;20231;-79
2023/01/08 13:01:55;;;;;;;29.57;19.57;;;5.20;99.90;;;;;;5083698;28;20219;-79
2023/01/08 13:04:45;;;;;;;28.30;19.93;;;5.20;99.90;;;;;;5088187;28;20588;-79
2023/01/08 13:07:44;;;;;;;28.37;18.80;;;5.30;99.90;;;;;;5079900;28;20226;-80
2023/01/08 13:10:37;;;;;;;31.93;20.23;;;5.20;99.90;;;;;;5081365;28;22378;-79
2023/01/08 13:13:29;;;;;;;29.30;20.03;;;5.20;99.90;;;;;;5083515;28;20279;-80
2023/01/08 13:16:23;;;;;;;31.30;20.10;;;5.00;99.90;;;;;;5080771;28;20220;-79
2023/01/08 13:19:25;;;;;;;30.43;19.17;;;5.20;99.90;;;;;;5081434;28;20215;-78
2023/01/08 13:22:27;;;;;;;32.40;20.50;;;5.20;99.90;;;;;;5078736;28;20230;-79
2023/01/08 13:25:33;;;;;;;32.27;21.07;;;5.20;99.90;;;;;;5083095;28;20376;-80
2023/01/08 13:28:30;;;;;;;36.47;22.30;;;5.20;99.90;;;;;;5082688;28;20316;-79
2023/01/08 13:31:27;;;;;;;33.33;22.63;;;5.20;99.90;;;;;;5074694;28;20713;-80
2023/01/08 13:34:23;;;;;;;33.13;21.97;;;5.20;99.90;;;;;;5079424;28;20235;-80
2023/01/08 13:37:11;;;;;;;34.53;22.57;;;5.10;99.90;;;;;;5083299;28;20212;-78
2023/01/08 13:40:39;;;;;;;34.57;21.77;;;5.00;99.90;;;;;;5082021;28;20342;-79
2023/01/08 13:43:58;;;;;;;39.90;23.20;;;5.20;99.90;;;;;;5080958;28;20235;-79
2023/01/08 13:46:54;;;;;;;36.93;23.17;;;5.20;99.90;;;;;;5095227;28;20223;-78
2023/01/08 13:49:45;;;;;;;41.43;24.67;;;5.20;99.90;;;;;;5078731;28;20220;-78
2023/01/08 13:52:43;;;;;;;43.47;24.37;;;5.10;99.90;;;;;;5083898;28;20310;-80
2023/01/08 13:55:36;;;;;;;39.40;23.53;;;5.20;99.90;;;;;;5082900;28;20227;-79
2023/01/08 13:58:32;;;;;;;38.63;23.93;;;5.00;99.90;;;;;;5079716;28;20322;-85
2023/01/08 14:01:23;;;;;;;38.97;23.97;;;5.10;99.90;;;;;;5098227;28;20238;-90
2023/01/08 14:04:21;;;;;;;36.87;21.93;;;5.20;99.90;;;;;;5115982;27;20302;-91
2023/01/08 14:07:14;;;;;;;38.97;23.67;;;5.10;99.90;;;;;;5110725;28;20219;-90
2023/01/08 14:10:08;;;;;;;38.30;23.53;;;5.10;99.90;;;;;;5102757;28;20221;-90
2023/01/08 14:13:06;;;;;;;33.70;22.07;;;5.20;99.90;;;;;;5094324;28;20227;-93
2023/01/08 14:16:02;;;;;;;39.10;22.80;;;5.20;99.90;;;;;;5126383;27;20212;-90
2023/01/08 14:19:01;;;;;;;38.27;23.00;;;5.00;99.90;;;;;;5129730;27;20314;-92
2023/01/08 14:21:51;;;;;;;41.53;22.67;;;5.10;99.90;;;;;;5096849;28;20227;-91
2023/01/08 14:24:44;;;;;;;38.83;23.83;;;5.00;99.90;;;;;;5110571;27;20248;-91
2023/01/08 14:27:33;;;;;;;39.37;22.80;;;5.00;99.90;;;;;;5139940;27;20251;-93
2023/01/08 14:30:23;;;;;;;37.80;23.37;;;5.00;99.90;;;;;;5112569;28;20241;-92
2023/01/08 14:33:13;;;;;;;38.80;22.70;;;5.00;99.90;;;;;;5109689;28;20242;-91
2023/01/08 14:36:03;;;;;;;41.83;24.43;;;4.90;99.90;;;;;;5092477;28;20323;-91
2023/01/08 14:38:52;;;;;;;42.20;24.20;;;4.80;99.90;;;;;;5098696;28;20227;-91
2023/01/08 14:44:54;;;;;;;40.43;22.93;;;5.00;99.90;;;;;;5081735;28;20372;-86
2023/01/08 14:47:45;;;;;;;43.07;23.77;;;5.00;99.90;;;;;;5083807;28;20398;-88